Time,TemperatureF,DewpointF,PressureIn,WindDirection,WindDirectionDegrees,WindSpeedMPH,WindSpeedGustMPH,Humidity,HourlyPrecipIn,Conditions,Clouds,dailyrainin,SoftwareType,DateUTC
2013-06-04 00:02:00,45.7,35.4,29.98,West,265,3.0,3.0,67,0.00,CLR,CLR,0.00,WeatherDisplay:10.34,2013-06-04 06:02:00,
2013-06-04 00:07:00,45.6,35.3,29.98,SW,236,2.0,7.0,67,0.00,CLR,CLR,0.00,WeatherDisplay:10.34,2013-06-04 06:07:00,
2013-06-04 00:12:00,45.6,35.3,29.98,WSW,242,5.0,8.0,67,0.00,CLR,CLR,0.00,WeatherDisplay:10.34,2013-06-04 06:12:00,
2013-06-04 00:17:00,45.5,35.2,29.98,WSW,248,5.0,10.0,67,0.00,CLR,CLR,0.00,WeatherDisplay:10.34,2013-06-04 06:17:00,
2013-06-04 00:22:00,45.4,35.1,30.00,West,264,9.0,9.0,67,0.00,CLR,CLR,0.00,WeatherDisplay:10.34,2013-06-04 06:22:00,
2013-06-04 00:27:00,45.3,35.4,30.00,West,273,8.0,9.0,68,0.00,CLR,CLR,0.00,WeatherDisplay:10.34,2013-06-04 06:27:00,
2013-06-04 00:32:00,45.2,35.3,30.00,WNW,287,3.0,3.0,68,0.00,CLR,CLR,0.00,WeatherDisplay:10.34,2013-06-04 06:32:00,
2013-06-04 00:37:00,45.0,35.4,30.00,WNW,296,3.0,7.0,69,0.00,CLR,CLR,0.00,WeatherDisplay:10.34,2013-06-04 06:37:00,
2013-06-04 00:42:00,45.0,35.4,30.00,NW,325,5.0,9.0,69,0.00,CLR,CLR,0.00,WeatherDisplay:10.34,2013-06-04 06:42:00,
2013-06-04 00:47:00,44.9,35.3,30.00,WNW,299,4.0,9.0,69,0.00,CLR,CLR,0.00,WeatherDisplay:10.34,2013-06-04 06:47:00,
2013-06-04 00:52:00,44.7,35.5,30.00,West,275,1.0,3.0,70,0.00,CLR,CLR,0.00,WeatherDisplay:10.34,2013-06-04 06:52:00,
2013-06-04 00:57:00,44.7,35.5,30.00,NW,315,6.0,8.0,70,0.00,CLR,CLR,0.00,WeatherDisplay:10.34,2013-06-04 06:57:00,
2013-06-04 01:02:00,44.6,35.4,30.00,NNW,348,7.0,10.0,70,0.00,CLR,CLR,0.00,WeatherDisplay:10.34,2013-06-04 07:02:00,
2013-06-04 01:07:00,44.5,35.3,30.00,NNW,327,1.0,1.0,70,0.00,CLR,CLR,0.00,WeatherDisplay:10.34,2013-06-04 07:07:00,
2013-06-04 01:12:00,44.4,35.2,30.01,NNW,336,1.0,1.0,70,0.00,CLR,CLR,0.00,WeatherDisplay:10.34,2013-06-04 07:12:00,
2013-06-04 01:17:00,44.3,35.1,30.01,NNW,336,1.0,2.0,70,0.00,CLR,CLR,0.00,WeatherDisplay:10.34,2013-06-04 07:17:00,
2013-06-04 01:22:00,44.2,35.0,30.01,SE,126,0.0,0.0,70,0.00,CLR,CLR,0.00,WeatherDisplay:10.34,2013-06-04 07:22:00,
2013-06-04 01:27:00,44.2,35.4,30.01,SE,126,0.0,1.0,71,0.00,CLR,CLR,0.00,WeatherDisplay:10.34,2013-06-04 07:27:00,
2013-06-04 01:32:00,44.2,35.4,30.01,ESE,123,0.0,1.0,71,0.00,CLR,CLR,0.00,WeatherDisplay:10.34,2013-06-04 07:32:00,
2013-06-04 01:37:00,44.0,35.2,30.01,NNW,338,0.0,1.0,71,0.00,CLR,CLR,0.00,WeatherDisplay:10.34,2013-06-04 07:37:00,
2013-06-04 01:42:00,44.0,35.2,30.02,NNW,338,2.0,2.0,71,0.00,CLR,CLR,0.00,WeatherDisplay:10.34,2013-06-04 07:42:00,
2013-06-04 01:47:00,43.9,35.1,30.02,NW,306,7.0,9.0,71,0.00,CLR,CLR,0.00,WeatherDisplay:10.34,2013-06-04 07:47:00,
2013-06-04 01:52:00,43.9,35.5,30.02,NNW,341,11.0,12.0,72,0.00,CLR,CLR,0.00,WeatherDisplay:10.34,2013-06-04 07:52:00,
2013-06-04 01:57:00,43.7,35.6,30.02,NNW,342,9.0,9.0,73,0.00,CLR,CLR,0.00,WeatherDisplay:10.34,2013-06-04 07:57:00,
2013-06-04 02:02:00,43.5,35.4,30.02,NNW,337,4.0,5.0,73,0.00,CLR,CLR,0.00,WeatherDisplay:10.34,2013-06-04 08:02:00,
2013-06-04 02:07:00,43.4,35.3,30.01,WNW,302,2.0,2.0,73,0.00,CLR,CLR,0.00,WeatherDisplay:10.34,2013-06-04 08:07:00,
2013-06-04 02:12:00,43.3,35.6,30.01,WNW,302,1.0,1.0,74,0.00,CLR,CLR,0.00,WeatherDisplay:10.34,2013-06-04 08:12:00,
2013-06-04 02:17:00,43.3,35.6,30.01,WNW,288,3.0,3.0,74,0.00,CLR,CLR,0.00,WeatherDisplay:10.34,2013-06-04 08:17:00,
2013-06-04 02:22:00,43.1,35.4,30.02,ENE,57,3.0,3.0,74,0.00,CLR,CLR,0.00,WeatherDisplay:10.34,2013-06-04 08:22:00,
2013-06-04 02:27:00,43.0,35.3,30.02,North,349,4.0,4.0,74,0.00,CLR,CLR,0.00,WeatherDisplay:10.34,2013-06-04 08:27:00,
2013-06-04 02:32:00,42.9,35.2,30.02,North,349,0.0,1.0,74,0.00,CLR,CLR,0.00,WeatherDisplay:10.34,2013-06-04 08:32:00,
2013-06-04 02:37:00,42.8,35.4,30.03,North,349,1.0,2.0,75,0.00,CLR,CLR,0.00,WeatherDisplay:10.34,2013-06-04 08:37:00,
2013-06-04 02:42:00,42.8,35.4,30.03,North,349,0.0,0.0,75,0.00,CLR,CLR,0.00,WeatherDisplay:10.34,2013-06-04 08:42:00,
2013-06-04 02:47:00,42.7,35.3,30.03,North,349,0.0,0.0,75,0.00,CLR,CLR,0.00,WeatherDisplay:10.34,2013-06-04 08:47:00,
2013-06-04 02:52:00,42.7,35.3,30.03,North,349,0.0,0.0,75,0.00,CLR,CLR,0.00,WeatherDisplay:10.34,2013-06-04 08:52:00,
2013-06-04 02:57:00,42.6,35.6,30.03,West,265,3.0,3.0,76,0.00,CLR,CLR,0.00,WeatherDisplay:10.34,2013-06-04 08:57:00,
2013-06-04 03:02:00,42.6,35.6,30.04,West,264,1.0,1.0,76,0.00,CLR,CLR,0.00,WeatherDisplay:10.34,2013-06-04 09:02:00,
2013-06-04 03:07:00,42.6,35.6,30.04,West,265,1.0,1.0,76,0.00,CLR,CLR,0.00,WeatherDisplay:10.34,2013-06-04 09:07:00,
2013-06-04 03:12:00,42.5,35.5,30.04,West,265,1.0,2.0,76,0.00,CLR,CLR,0.00,WeatherDisplay:10.34,2013-06-04 09:12:00,
2013-06-04 03:17:00,42.5,35.5,30.04,West,264,2.0,2.0,76,0.00,CLR,CLR,0.00,WeatherDisplay:10.34,2013-06-04 09:17:00,
2013-06-04 03:22:00,42.4,35.4,30.05,West,265,2.0,5.0,76,0.00,CLR,CLR,0.00,WeatherDisplay:10.34,2013-06-04 09:22:00,
2013-06-04 03:27:00,42.4,35.4,30.05,WSW,254,6.0,7.0,76,0.00,CLR,CLR,0.00,WeatherDisplay:10.34,2013-06-04 09:27:00,
2013-06-04 03:32:00,42.4,35.7,30.05,WSW,255,4.0,5.0,77,0.00,CLR,CLR,0.00,WeatherDisplay:10.34,2013-06-04 09:32:00,
2013-06-04 03:37:00,42.4,35.7,30.05,WSW,254,1.0,1.0,77,0.00,CLR,CLR,0.00,WeatherDisplay:10.34,2013-06-04 09:37:00,
2013-06-04 03:42:00,42.4,35.7,30.05,WSW,254,2.0,3.0,77,0.00,CLR,CLR,0.00,WeatherDisplay:10.34,2013-06-04 09:42:00,
2013-06-04 03:47:00,42.3,35.6,30.05,WSW,254,3.0,5.0,77,0.00,CLR,CLR,0.00,WeatherDisplay:10.34,2013-06-04 09:47:00,
2013-06-04 03:52:00,42.3,35.6,30.05,WSW,254,2.0,5.0,77,0.00,CLR,CLR,0.00,WeatherDisplay:10.34,2013-06-04 09:52:00,
2013-06-04 03:57:00,42.4,36.0,30.05,WSW,254,1.0,1.0,78,0.00,CLR,CLR,0.00,WeatherDisplay:10.34,2013-06-04 09:57:00,
2013-06-04 04:02:00,42.3,35.9,30.05,WSW,256,5.0,5.0,78,0.00,CLR,CLR,0.00,WeatherDisplay:10.34,2013-06-04 10:02:00,
2013-06-04 04:07:00,42.3,35.9,30.05,WSW,246,3.0,3.0,78,0.00,CLR,CLR,0.00,WeatherDisplay:10.34,2013-06-04 10:07:00,
2013-06-04 04:12:00,42.3,35.9,30.05,WSW,246,2.0,3.0,78,0.00,CLR,CLR,0.00,WeatherDisplay:10.34,2013-06-04 10:12:00,
2013-06-04 04:17:00,42.4,36.0,30.05,WSW,246,1.0,1.0,78,0.00,CLR,CLR,0.00,WeatherDisplay:10.34,2013-06-04 10:17:00,
2013-06-04 04:22:00,42.4,36.0,30.05,WSW,246,3.0,3.0,78,0.00,CLR,CLR,0.00,WeatherDisplay:10.34,2013-06-04 10:22:00,
2013-06-04 04:27:00,42.4,36.0,30.05,WNW,300,2.0,2.0,78,0.00,CLR,CLR,0.00,WeatherDisplay:10.34,2013-06-04 10:27:00,
2013-06-04 04:32:00,42.4,36.0,30.05,WNW,283,4.0,5.0,78,0.00,CLR,CLR,0.00,WeatherDisplay:10.34,2013-06-04 10:32:00,
2013-06-04 04:37:00,42.4,35.7,30.05,West,276,3.0,3.0,77,0.00,CLR,CLR,0.00,WeatherDisplay:10.34,2013-06-04 10:37:00,
2013-06-04 04:42:00,42.5,35.8,30.06,WNW,298,1.0,2.0,77,0.00,CLR,CLR,0.00,WeatherDisplay:10.34,2013-06-04 10:42:00,
2013-06-04 04:47:00,42.6,35.9,30.06,NW,325,3.0,3.0,77,0.00,CLR,CLR,0.00,WeatherDisplay:10.34,2013-06-04 10:47:00,
2013-06-04 04:52:00,42.8,36.1,30.06,NNW,346,7.0,8.0,77,0.00,CLR,CLR,0.00,WeatherDisplay:10.34,2013-06-04 10:52:00,
2013-06-04 04:57:00,42.9,35.9,30.06,NNW,330,9.0,10.0,76,0.00,CLR,CLR,0.00,WeatherDisplay:10.34,2013-06-04 10:57:00,
2013-06-04 05:02:00,42.9,35.9,30.06,NW,317,2.0,3.0,76,0.00,OVC,OVC,0.00,WeatherDisplay:10.34,2013-06-04 11:02:00,
2013-06-04 05:07:00,42.9,35.9,30.06,NNW,336,3.0,5.0,76,0.00,OVC,OVC,0.00,WeatherDisplay:10.34,2013-06-04 11:07:00,
2013-06-04 05:12:00,43.0,36.0,30.05,NW,317,4.0,5.0,76,0.00,OVC,OVC,0.00,WeatherDisplay:10.34,2013-06-04 11:12:00,
2013-06-04 05:17:00,43.0,36.0,30.05,West,271,6.0,7.0,76,0.00,OVC,OVC,0.00,WeatherDisplay:10.34,2013-06-04 11:17:00,
2013-06-04 05:22:00,43.0,36.0,30.06,WSW,257,2.0,2.0,76,0.00,OVC,OVC,0.00,WeatherDisplay:10.34,2013-06-04 11:22:00,
2013-06-04 05:27:00,43.1,36.0,30.06,WNW,287,9.0,13.0,76,0.00,OVC,OVC,0.00,WeatherDisplay:10.34,2013-06-04 11:27:00,
2013-06-04 05:32:00,43.1,36.0,30.06,WSW,237,6.0,8.0,76,0.00,OVC,OVC,0.00,WeatherDisplay:10.34,2013-06-04 11:32:00,
2013-06-04 05:37:00,43.1,36.0,30.06,WNW,287,6.0,9.0,76,0.00,OVC,OVC,0.00,WeatherDisplay:10.34,2013-06-04 11:37:00,
2013-06-04 05:42:00,43.2,36.1,30.07,WSW,255,3.0,3.0,76,0.00,OVC,OVC,0.00,WeatherDisplay:10.34,2013-06-04 11:42:00,
2013-06-04 05:47:00,43.2,35.8,30.07,NNW,327,4.0,5.0,75,0.00,OVC,OVC,0.00,WeatherDisplay:10.34,2013-06-04 11:47:00,
2013-06-04 05:52:00,43.2,35.8,30.06,NNW,338,8.0,9.0,75,0.00,OVC,OVC,0.00,WeatherDisplay:10.34,2013-06-04 11:52:00,
2013-06-04 05:57:00,43.2,35.8,30.06,NW,322,5.0,9.0,75,0.00,OVC,OVC,0.00,WeatherDisplay:10.34,2013-06-04 11:57:00,
2013-06-04 06:02:00,43.2,35.5,30.06,NNW,327,5.0,5.0,74,0.00,OVC,OVC,0.00,WeatherDisplay:10.34,2013-06-04 12:02:00,
2013-06-04 06:07:00,43.2,35.1,30.06,NW,313,3.0,7.0,73,0.00,CLR,CLR,0.00,WeatherDisplay:10.34,2013-06-04 12:07:00,
2013-06-04 06:12:00,43.2,35.1,30.06,WSW,254,3.0,5.0,73,0.00,CLR,CLR,0.00,WeatherDisplay:10.34,2013-06-04 12:12:00,
2013-06-04 06:17:00,43.2,35.5,30.07,West,261,3.0,3.0,74,0.00,CLR,CLR,0.00,WeatherDisplay:10.34,2013-06-04 12:17:00,
2013-06-04 06:22:00,43.3,35.6,30.07,WSW,244,4.0,4.0,74,0.00,SCT,SCT,0.00,WeatherDisplay:10.34,2013-06-04 12:22:00,
2013-06-04 06:27:00,43.3,35.6,30.07,SW,236,5.0,5.0,74,0.00,BKN,BKN,0.00,WeatherDisplay:10.34,2013-06-04 12:27:00,
2013-06-04 06:32:00,43.4,35.3,30.07,West,263,4.0,4.0,73,0.00,BKN,BKN,0.00,WeatherDisplay:10.34,2013-06-04 12:32:00,
2013-06-04 06:37:00,43.4,35.3,30.08,WNW,291,3.0,3.0,73,0.00,BKN,BKN,0.00,WeatherDisplay:10.34,2013-06-04 12:37:00,
2013-06-04 06:42:00,43.6,35.5,30.08,WNW,291,1.0,2.0,73,0.00,BKN,BKN,0.00,WeatherDisplay:10.34,2013-06-04 12:42:00,
2013-06-04 06:47:00,43.7,35.3,30.08,WNW,288,1.0,2.0,72,0.00,BKN,BKN,0.00,WeatherDisplay:10.34,2013-06-04 12:47:00,
2013-06-04 06:52:00,43.8,35.4,30.08,WNW,298,4.0,4.0,72,0.00,OVC,OVC,0.00,WeatherDisplay:10.34,2013-06-04 12:52:00,
2013-06-04 06:57:00,44.0,35.6,30.08,WNW,296,1.0,2.0,72,0.00,BKN,BKN,0.00,WeatherDisplay:10.34,2013-06-04 12:57:00,
2013-06-04 07:02:00,44.2,35.7,30.08,WNW,291,1.0,1.0,72,0.00,BKN,BKN,0.00,WeatherDisplay:10.34,2013-06-04 13:02:00,
2013-06-04 07:07:00,44.3,35.5,30.08,NW,308,3.0,5.0,71,0.00,BKN,BKN,0.00,WeatherDisplay:10.34,2013-06-04 13:07:00,
2013-06-04 07:12:00,44.5,35.7,30.08,NW,323,3.0,7.0,71,0.00,BKN,BKN,0.00,WeatherDisplay:10.34,2013-06-04 13:12:00,
2013-06-04 07:17:00,44.7,35.5,30.08,WNW,292,2.0,2.0,70,0.00,BKN,BKN,0.00,WeatherDisplay:10.34,2013-06-04 13:17:00,
2013-06-04 07:22:00,44.9,35.7,30.08,WNW,302,3.0,3.0,70,0.00,BKN,BKN,0.00,WeatherDisplay:10.34,2013-06-04 13:22:00,
2013-06-04 07:27:00,45.0,35.8,30.08,NNW,344,6.0,6.0,70,0.00,BKN,BKN,0.00,WeatherDisplay:10.34,2013-06-04 13:27:00,
2013-06-04 07:32:00,45.0,35.8,30.09,NNW,338,3.0,3.0,70,0.00,BKN,BKN,0.00,WeatherDisplay:10.34,2013-06-04 13:32:00,
2013-06-04 07:37:00,45.0,35.8,30.09,NNW,336,3.0,3.0,70,0.00,BKN,BKN,0.00,WeatherDisplay:10.34,2013-06-04 13:37:00,
2013-06-04 07:42:00,45.1,35.9,30.09,NNW,338,1.0,1.0,70,0.00,BKN,BKN,0.00,WeatherDisplay:10.34,2013-06-04 13:42:00,
2013-06-04 07:47:00,45.3,36.1,30.09,NNW,338,0.0,1.0,70,0.00,SCT,SCT,0.00,WeatherDisplay:10.34,2013-06-04 13:47:00,
2013-06-04 07:52:00,45.5,35.9,30.09,NNW,338,0.0,0.0,69,0.00,SCT,SCT,0.00,WeatherDisplay:10.34,2013-06-04 13:52:00,
2013-06-04 07:57:00,45.7,35.7,30.09,NNW,338,0.0,0.0,68,0.00,SCT,SCT,0.00,WeatherDisplay:10.34,2013-06-04 13:57:00,
2013-06-04 08:02:00,46.0,35.7,30.09,WNW,285,5.0,5.0,67,0.00,SCT,SCT,0.00,WeatherDisplay:10.34,2013-06-04 14:02:00,
2013-06-04 08:07:00,46.3,36.3,30.09,WNW,286,1.0,5.0,68,0.00,SCT,SCT,0.00,WeatherDisplay:10.34,2013-06-04 14:07:00,
2013-06-04 08:12:00,46.6,36.2,30.09,NW,318,6.0,8.0,67,0.00,FEW,FEW,0.00,WeatherDisplay:10.34,2013-06-04 14:12:00,
2013-06-04 08:17:00,46.8,36.4,30.09,North,9,7.0,8.0,67,0.00,FEW,FEW,0.00,WeatherDisplay:10.34,2013-06-04 14:17:00,
2013-06-04 08:22:00,47.0,36.6,30.09,NNW,335,8.0,10.0,67,0.00,FEW,FEW,0.00,WeatherDisplay:10.34,2013-06-04 14:22:00,
2013-06-04 08:27:00,47.4,36.6,30.09,WNW,301,3.0,5.0,66,0.00,BKN,BKN,0.00,WeatherDisplay:10.34,2013-06-04 14:27:00,
2013-06-04 08:32:00,47.5,37.1,30.09,West,281,4.0,5.0,67,0.00,BKN,BKN,0.00,WeatherDisplay:10.34,2013-06-04 14:32:00,
2013-06-04 08:37:00,47.4,37.0,30.09,WNW,300,6.0,9.0,67,0.00,BKN,BKN,0.00,WeatherDisplay:10.34,2013-06-04 14:37:00,
2013-06-04 08:42:00,47.3,36.9,30.10,NNW,348,8.0,8.0,67,0.00,BKN,BKN,0.00,WeatherDisplay:10.34,2013-06-04 14:42:00,
2013-06-04 08:47:00,47.3,36.9,30.10,North,349,4.0,7.0,67,0.00,BKN,BKN,0.00,WeatherDisplay:10.34,2013-06-04 14:47:00,
2013-06-04 08:52:00,47.2,36.4,30.10,NW,323,12.0,13.0,66,0.00,BKN,BKN,0.00,WeatherDisplay:10.34,2013-06-04 14:52:00,
2013-06-04 08:57:00,47.1,37.1,30.10,NW,312,5.0,7.0,68,0.00,BKN,BKN,0.00,WeatherDisplay:10.34,2013-06-04 14:57:00,
2013-06-04 09:02:00,47.2,36.8,30.10,NW,322,9.0,9.0,67,0.00,BKN,BKN,0.00,WeatherDisplay:10.34,2013-06-04 15:02:00,
2013-06-04 09:07:00,47.3,36.5,30.10,NW,306,7.0,9.0,66,0.00,BKN,BKN,0.00,WeatherDisplay:10.34,2013-06-04 15:07:00,
2013-06-04 09:12:00,47.2,36.8,30.09,NW,309,9.0,10.0,67,0.00,BKN,BKN,0.00,WeatherDisplay:10.34,2013-06-04 15:12:00,
2013-06-04 09:17:00,47.1,36.3,30.09,NW,322,10.0,12.0,66,0.00,OVC,OVC,0.00,WeatherDisplay:10.34,2013-06-04 15:17:00,
2013-06-04 09:22:00,47.1,36.7,30.10,NW,310,10.0,12.0,67,0.00,OVC,OVC,0.00,WeatherDisplay:10.34,2013-06-04 15:22:00,
2013-06-04 09:27:00,47.0,36.6,30.10,NW,318,10.0,10.0,67,0.00,BKN,BKN,0.00,WeatherDisplay:10.34,2013-06-04 15:27:00,
2013-06-04 09:32:00,47.2,36.4,30.11,NNW,331,10.0,10.0,66,0.00,BKN,BKN,0.00,WeatherDisplay:10.34,2013-06-04 15:32:00,
2013-06-04 09:37:00,47.3,36.5,30.11,NW,312,11.0,12.0,66,0.00,OVC,OVC,0.00,WeatherDisplay:10.34,2013-06-04 15:37:00,
2013-06-04 09:42:00,47.3,36.5,30.11,NNW,334,11.0,13.0,66,0.00,OVC,OVC,0.00,WeatherDisplay:10.34,2013-06-04 15:42:00,
2013-06-04 09:47:00,47.2,36.8,30.11,NNW,334,12.0,14.0,67,0.00,OVC,OVC,0.00,WeatherDisplay:10.34,2013-06-04 15:47:00,
2013-06-04 09:52:00,47.4,37.0,30.11,NNW,336,10.0,13.0,67,0.00,OVC,OVC,0.00,WeatherDisplay:10.34,2013-06-04 15:52:00,
2013-06-04 09:57:00,47.4,36.6,30.11,WNW,296,8.0,9.0,66,0.00,OVC,OVC,0.00,WeatherDisplay:10.34,2013-06-04 15:57:00,
2013-06-04 10:02:00,47.4,36.6,30.11,North,355,17.0,20.0,66,0.00,OVC,OVC,0.00,WeatherDisplay:10.34,2013-06-04 16:02:00,
2013-06-04 10:07:00,47.2,36.4,30.11,NW,304,14.0,16.0,66,0.00,OVC,OVC,0.00,WeatherDisplay:10.34,2013-06-04 16:07:00,
2013-06-04 10:12:00,47.2,36.4,30.12,NW,325,15.0,20.0,66,0.00,OVC,OVC,0.00,WeatherDisplay:10.34,2013-06-04 16:12:00,
2013-06-04 10:17:00,47.3,36.9,30.12,North,10,13.0,15.0,67,0.00,OVC,OVC,0.00,WeatherDisplay:10.34,2013-06-04 16:17:00,
2013-06-04 10:22:00,47.6,37.2,30.12,NNW,342,11.0,17.0,67,0.00,BKN,BKN,0.00,WeatherDisplay:10.34,2013-06-04 16:22:00,
2013-06-04 10:27:00,47.9,37.1,30.12,NW,326,8.0,14.0,66,0.00,BKN,BKN,0.00,WeatherDisplay:10.34,2013-06-04 16:27:00,
2013-06-04 10:32:00,48.2,37.4,30.12,NNW,346,17.0,17.0,66,0.00,BKN,BKN,0.00,WeatherDisplay:10.34,2013-06-04 16:32:00,
2013-06-04 10:37:00,48.3,37.1,30.12,NNW,330,17.0,17.0,65,0.00,OVC,OVC,0.00,WeatherDisplay:10.34,2013-06-04 16:37:00,
2013-06-04 10:42:00,48.2,37.0,30.12,NW,323,17.0,21.0,65,0.00,BKN,BKN,0.00,WeatherDisplay:10.34,2013-06-04 16:42:00,
2013-06-04 10:47:00,48.3,37.5,30.12,NNW,342,13.0,14.0,66,0.00,BKN,BKN,0.00,WeatherDisplay:10.34,2013-06-04 16:47:00,
2013-06-04 10:52:00,48.5,37.3,30.12,West,278,10.0,10.0,65,0.00,BKN,BKN,0.00,WeatherDisplay:10.34,2013-06-04 16:52:00,
2013-06-04 10:57:00,48.7,37.5,30.12,NW,323,14.0,15.0,65,0.00,BKN,BKN,0.00,WeatherDisplay:10.34,2013-06-04 16:57:00,
2013-06-04 11:02:00,48.7,37.5,30.12,NNW,340,17.0,17.0,65,0.00,BKN,BKN,0.00,WeatherDisplay:10.34,2013-06-04 17:02:00,
2013-06-04 11:07:00,49.0,37.7,30.12,NNW,329,15.0,15.0,65,0.00,BKN,BKN,0.00,WeatherDisplay:10.34,2013-06-04 17:07:00,
2013-06-04 11:12:00,49.0,37.3,30.12,NNW,334,20.0,22.0,64,0.00,BKN,BKN,0.00,WeatherDisplay:10.34,2013-06-04 17:12:00,
2013-06-04 11:17:00,48.9,37.6,30.12,West,281,7.0,10.0,65,0.00,BKN,BKN,0.00,WeatherDisplay:10.34,2013-06-04 17:17:00,
2013-06-04 11:22:00,49.5,37.8,30.12,NNW,333,16.0,16.0,64,0.00,BKN,BKN,0.00,WeatherDisplay:10.34,2013-06-04 17:22:00,
2013-06-04 11:27:00,49.3,37.2,30.12,NNW,334,16.0,16.0,63,0.00,OVC,OVC,0.00,WeatherDisplay:10.34,2013-06-04 17:27:00,
2013-06-04 11:32:00,48.8,37.2,30.13,NNW,328,12.0,20.0,64,0.00,OVC,OVC,0.00,WeatherDisplay:10.34,2013-06-04 17:32:00,
2013-06-04 11:37:00,48.7,37.5,30.13,NNW,344,11.0,13.0,65,0.00,OVC,OVC,0.00,WeatherDisplay:10.34,2013-06-04 17:37:00,
2013-06-04 11:42:00,48.8,37.6,30.13,North,360,15.0,16.0,65,0.00,OVC,OVC,0.00,WeatherDisplay:10.34,2013-06-04 17:42:00,
2013-06-04 11:47:00,48.8,37.2,30.13,NNW,332,15.0,15.0,64,0.00,OVC,OVC,0.00,WeatherDisplay:10.34,2013-06-04 17:47:00,
2013-06-04 11:52:00,48.7,36.7,30.13,NW,316,10.0,10.0,63,0.00,OVC,OVC,0.00,WeatherDisplay:10.34,2013-06-04 17:52:00,
2013-06-04 11:57:00,48.8,37.2,30.14,WNW,284,8.0,9.0,64,0.00,OVC,OVC,0.00,WeatherDisplay:10.34,2013-06-04 17:57:00,
2013-06-04 12:02:00,49.0,36.9,30.14,NNW,336,9.0,9.0,63,0.00,OVC,OVC,0.00,WeatherDisplay:10.34,2013-06-04 18:02:00,
2013-06-04 12:07:00,49.2,36.7,30.14,NW,314,5.0,7.0,62,0.00,OVC,OVC,0.00,WeatherDisplay:10.34,2013-06-04 18:07:00,
2013-06-04 12:12:00,49.2,36.3,30.14,NW,304,7.0,10.0,61,0.00,OVC,OVC,0.00,WeatherDisplay:10.34,2013-06-04 18:12:00,
2013-06-04 12:17:00,49.4,36.9,30.14,WNW,288,3.0,8.0,62,0.00,OVC,OVC,0.00,WeatherDisplay:10.34,2013-06-04 18:17:00,
2013-06-04 12:23:00,49.5,37.0,30.14,WNW,285,3.0,3.0,62,0.00,OVC,OVC,0.00,WeatherDisplay:10.34,2013-06-04 18:23:00,
2013-06-04 12:28:00,49.9,37.0,30.14,WSW,249,9.0,10.0,61,0.00,OVC,OVC,0.00,WeatherDisplay:10.34,2013-06-04 18:28:00,
2013-06-04 12:33:00,49.9,36.6,30.14,West,265,9.0,12.0,60,0.00,OVC,OVC,0.00,WeatherDisplay:10.34,2013-06-04 18:33:00,
2013-06-04 12:38:00,49.9,37.0,30.14,WSW,257,12.0,13.0,61,0.00,OVC,OVC,0.00,WeatherDisplay:10.34,2013-06-04 18:38:00,
2013-06-04 12:43:00,50.1,36.7,30.14,West,275,11.0,13.0,60,0.00,OVC,OVC,0.00,WeatherDisplay:10.34,2013-06-04 18:43:00,
2013-06-04 12:48:00,50.3,36.9,30.14,WNW,285,5.0,7.0,60,0.00,OVC,OVC,0.00,WeatherDisplay:10.34,2013-06-04 18:48:00,
2013-06-04 12:53:00,50.8,37.4,30.14,WSW,248,12.0,14.0,60,0.00,OVC,OVC,0.00,WeatherDisplay:10.34,2013-06-04 18:53:00,
2013-06-04 12:58:00,51.2,37.8,30.14,NW,321,8.0,9.0,60,0.00,BKN,BKN,0.00,WeatherDisplay:10.34,2013-06-04 18:58:00,
2013-06-04 13:03:00,51.6,37.7,30.14,West,271,11.0,11.0,59,0.00,OVC,OVC,0.00,WeatherDisplay:10.34,2013-06-04 19:03:00,
2013-06-04 13:08:00,51.7,37.8,30.14,WNW,292,7.0,10.0,59,0.00,OVC,OVC,0.00,WeatherDisplay:10.34,2013-06-04 19:08:00,
2013-06-04 13:13:00,51.7,36.9,30.13,West,280,5.0,9.0,57,0.00,OVC,OVC,0.00,WeatherDisplay:10.34,2013-06-04 19:13:00,
2013-06-04 13:18:00,51.7,37.8,30.13,NW,310,8.0,8.0,59,0.00,OVC,OVC,0.00,WeatherDisplay:10.34,2013-06-04 19:18:00,
2013-06-04 13:23:00,51.7,37.4,30.14,NW,310,7.0,15.0,58,0.00,OVC,OVC,0.00,WeatherDisplay:10.34,2013-06-04 19:23:00,
2013-06-04 13:28:00,51.5,37.2,30.14,NNW,333,9.0,10.0,58,0.00,OVC,OVC,0.00,WeatherDisplay:10.34,2013-06-04 19:28:00,
2013-06-04 13:33:00,51.3,37.0,30.14,West,274,11.0,11.0,58,0.00,OVC,OVC,0.00,WeatherDisplay:10.34,2013-06-04 19:33:00,
2013-06-04 13:38:00,51.3,37.4,30.14,NW,309,6.0,9.0,59,0.00,OVC,OVC,0.00,WeatherDisplay:10.34,2013-06-04 19:38:00,
2013-06-04 13:43:00,51.2,37.4,30.14,WNW,300,9.0,9.0,59,0.00,OVC,OVC,0.00,WeatherDisplay:10.34,2013-06-04 19:43:00,
2013-06-04 13:48:00,51.1,36.8,30.14,West,272,6.0,6.0,58,0.00,OVC,OVC,0.00,WeatherDisplay:10.34,2013-06-04 19:48:00,
2013-06-04 13:53:00,51.0,37.6,30.14,NW,325,4.0,5.0,60,0.00,OVC,OVC,0.00,WeatherDisplay:10.34,2013-06-04 19:53:00,
2013-06-04 13:58:00,50.8,37.8,30.14,NW,326,9.0,9.0,61,0.00,OVC,OVC,0.00,WeatherDisplay:10.34,2013-06-04 19:58:00,
2013-06-04 14:03:00,50.8,37.4,30.14,WNW,300,9.0,14.0,60,0.00,OVC,OVC,0.00,WeatherDisplay:10.34,2013-06-04 20:03:00,
2013-06-04 14:08:00,50.8,38.2,30.14,WSW,252,9.0,12.0,62,0.00,OVC,OVC,0.00,WeatherDisplay:10.34,2013-06-04 20:08:00,
2013-06-04 14:13:00,50.8,38.7,30.15,WNW,298,8.0,13.0,63,0.00,OVC,OVC,0.00,WeatherDisplay:10.34,2013-06-04 20:13:00,
2013-06-04 14:18:00,50.9,37.5,30.15,NW,306,7.0,12.0,60,0.00,BKN,BKN,0.00,WeatherDisplay:10.34,2013-06-04 20:18:00,
2013-06-04 14:23:00,51.4,38.4,30.14,NNW,332,9.0,12.0,61,0.00,OVC,OVC,0.00,WeatherDisplay:10.34,2013-06-04 20:23:00,
2013-06-04 14:28:00,51.8,38.3,30.14,NW,318,10.0,15.0,60,0.00,BKN,BKN,0.00,WeatherDisplay:10.34,2013-06-04 20:28:00,
2013-06-04 14:33:00,52.1,38.2,30.15,West,271,7.0,8.0,59,0.00,BKN,BKN,0.00,WeatherDisplay:10.34,2013-06-04 20:33:00,
2013-06-04 14:38:00,52.8,38.4,30.15,WNW,291,13.0,17.0,58,0.00,BKN,BKN,0.00,WeatherDisplay:10.34,2013-06-04 20:38:00,
2013-06-04 14:43:00,53.0,38.2,30.15,NW,306,9.0,10.0,57,0.00,BKN,BKN,0.00,WeatherDisplay:10.34,2013-06-04 20:43:00,
2013-06-04 14:48:00,53.2,38.4,30.15,WNW,284,7.0,10.0,57,0.00,BKN,BKN,0.00,WeatherDisplay:10.34,2013-06-04 20:48:00,
2013-06-04 14:53:00,53.5,37.7,30.14,NNW,341,11.0,16.0,55,0.00,BKN,BKN,0.00,WeatherDisplay:10.34,2013-06-04 20:53:00,
2013-06-04 14:58:00,53.6,37.8,30.14,WNW,297,7.0,13.0,55,0.00,BKN,BKN,0.00,WeatherDisplay:10.34,2013-06-04 20:58:00,
2013-06-04 15:03:00,53.7,37.4,30.15,NNW,336,10.0,12.0,54,0.00,BKN,BKN,0.00,WeatherDisplay:10.34,2013-06-04 21:03:00,
2013-06-04 15:08:00,53.7,37.4,30.15,NNW,347,14.0,15.0,54,0.00,BKN,BKN,0.00,WeatherDisplay:10.34,2013-06-04 21:08:00,
2013-06-04 15:13:00,54.0,38.2,30.14,NNW,339,10.0,12.0,55,0.00,BKN,BKN,0.00,WeatherDisplay:10.34,2013-06-04 21:13:00,
2013-06-04 15:18:00,54.4,38.1,30.14,WNW,286,10.0,10.0,54,0.00,BKN,BKN,0.00,WeatherDisplay:10.34,2013-06-04 21:18:00,
2013-06-04 15:24:00,54.7,38.8,30.14,NW,314,14.0,16.0,55,0.00,BKN,BKN,0.00,WeatherDisplay:10.34,2013-06-04 21:24:00,
2013-06-04 15:29:00,55.0,38.2,30.14,NW,315,9.0,14.0,53,0.00,BKN,BKN,0.00,WeatherDisplay:10.34,2013-06-04 21:29:00,
2013-06-04 15:34:00,55.0,37.7,30.15,WNW,303,10.0,10.0,52,0.00,SCT,SCT,0.00,WeatherDisplay:10.34,2013-06-04 21:34:00,
2013-06-04 15:39:00,54.8,37.5,30.15,NW,318,12.0,14.0,52,0.00,BKN,BKN,0.00,WeatherDisplay:10.34,2013-06-04 21:39:00,
2013-06-04 15:44:00,54.6,38.3,30.15,WNW,298,8.0,14.0,54,0.00,SCT,SCT,0.00,WeatherDisplay:10.34,2013-06-04 21:44:00,
2013-06-04 15:49:00,54.5,38.7,30.15,WNW,292,8.0,9.0,55,0.00,BKN,BKN,0.00,WeatherDisplay:10.34,2013-06-04 21:49:00,
2013-06-04 15:54:00,55.0,38.2,30.15,NNW,331,13.0,14.0,53,0.00,SCT,SCT,0.00,WeatherDisplay:10.34,2013-06-04 21:54:00,
2013-06-04 15:59:00,55.3,38.9,30.15,NW,318,5.0,7.0,54,0.00,BKN,BKN,0.00,WeatherDisplay:10.34,2013-06-04 21:59:00,
2013-06-04 16:04:00,55.7,39.3,30.15,NW,311,11.0,14.0,54,0.00,SCT,SCT,0.00,WeatherDisplay:10.34,2013-06-04 22:04:00,
2013-06-04 16:09:00,55.5,38.6,30.15,NW,309,10.0,16.0,53,0.00,BKN,BKN,0.00,WeatherDisplay:10.34,2013-06-04 22:09:00,
2013-06-04 16:14:00,55.3,38.0,30.15,West,265,3.0,13.0,52,0.00,BKN,BKN,0.00,WeatherDisplay:10.34,2013-06-04 22:14:00,
2013-06-04 16:19:00,54.9,37.6,30.15,WNW,288,13.0,17.0,52,0.00,BKN,BKN,0.00,WeatherDisplay:10.34,2013-06-04 22:19:00,
2013-06-04 16:24:00,54.6,38.3,30.15,WNW,298,8.0,10.0,54,0.00,BKN,BKN,0.00,WeatherDisplay:10.34,2013-06-04 22:24:00,
2013-06-04 16:29:00,54.5,38.2,30.15,WNW,294,10.0,12.0,54,0.00,BKN,BKN,0.00,WeatherDisplay:10.34,2013-06-04 22:29:00,
2013-06-04 16:34:00,54.6,38.3,30.15,NNW,329,10.0,10.0,54,0.00,BKN,BKN,0.00,WeatherDisplay:10.34,2013-06-04 22:34:00,
2013-06-04 16:39:00,54.8,38.9,30.15,West,275,12.0,12.0,55,0.00,SCT,SCT,0.00,WeatherDisplay:10.34,2013-06-04 22:39:00,
2013-06-04 16:44:00,55.4,38.5,30.15,NNW,327,11.0,14.0,53,0.00,SCT,SCT,0.00,WeatherDisplay:10.34,2013-06-04 22:44:00,
2013-06-04 16:49:00,55.8,38.9,30.15,NNW,336,12.0,12.0,53,0.00,SCT,SCT,0.00,WeatherDisplay:10.34,2013-06-04 22:49:00,
2013-06-04 16:54:00,55.7,37.8,30.15,NW,321,13.0,15.0,51,0.00,BKN,BKN,0.00,WeatherDisplay:10.34,2013-06-04 22:54:00,
2013-06-04 16:59:00,55.4,38.5,30.15,WNW,294,8.0,10.0,53,0.00,BKN,BKN,0.00,WeatherDisplay:10.34,2013-06-04 22:59:00,
2013-06-04 17:04:00,55.4,38.1,30.15,WNW,294,6.0,9.0,52,0.00,FEW,FEW,0.00,WeatherDisplay:10.34,2013-06-04 23:04:00,
2013-06-04 17:09:00,55.1,37.8,30.15,NNW,327,11.0,12.0,52,0.00,BKN,BKN,0.00,WeatherDisplay:10.34,2013-06-04 23:09:00,
2013-06-04 17:14:00,55.1,38.7,30.14,NNW,330,7.0,9.0,54,0.00,SCT,SCT,0.00,WeatherDisplay:10.34,2013-06-04 23:14:00,
2013-06-04 17:19:00,55.3,38.4,30.14,NW,309,11.0,13.0,53,0.00,SCT,SCT,0.00,WeatherDisplay:10.34,2013-06-04 23:19:00,
2013-06-04 17:24:00,55.3,38.4,30.15,NW,323,10.0,13.0,53,0.00,BKN,BKN,0.00,WeatherDisplay:10.34,2013-06-04 23:24:00,
2013-06-04 17:29:00,55.2,38.4,30.15,WNW,299,8.0,12.0,53,0.00,BKN,BKN,0.00,WeatherDisplay:10.34,2013-06-04 23:29:00,
2013-06-04 17:34:00,54.9,38.1,30.15,West,263,7.0,13.0,53,0.00,BKN,BKN,0.00,WeatherDisplay:10.34,2013-06-04 23:34:00,
2013-06-04 17:39:00,54.6,37.8,30.15,WNW,303,7.0,7.0,53,0.00,BKN,BKN,0.00,WeatherDisplay:10.34,2013-06-04 23:39:00,
2013-06-04 17:44:00,54.6,38.7,30.15,NW,313,8.0,10.0,55,0.00,BKN,BKN,0.00,WeatherDisplay:10.34,2013-06-04 23:44:00,
2013-06-04 17:49:00,54.5,38.2,30.15,NW,305,7.0,8.0,54,0.00,BKN,BKN,0.00,WeatherDisplay:10.34,2013-06-04 23:49:00,
2013-06-04 17:54:00,54.3,38.0,30.15,NW,313,9.0,10.0,54,0.00,BKN,BKN,0.00,WeatherDisplay:10.34,2013-06-04 23:54:00,
2013-06-04 17:59:00,54.3,38.0,30.15,NW,317,6.0,10.0,54,0.00,SCT,SCT,0.00,WeatherDisplay:10.34,2013-06-04 23:59:00,
2013-06-04 18:04:00,54.6,38.3,30.15,WNW,292,9.0,14.0,54,0.00,FEW,FEW,0.00,WeatherDisplay:10.34,2013-06-05 00:04:00,
2013-06-04 18:09:00,54.6,38.3,30.15,NNW,338,9.0,12.0,54,0.00,BKN,BKN,0.00,WeatherDisplay:10.34,2013-06-05 00:09:00,
2013-06-04 18:14:00,54.1,38.3,30.16,NW,315,6.0,9.0,55,0.00,BKN,BKN,0.00,WeatherDisplay:10.34,2013-06-05 00:14:00,
2013-06-04 18:19:00,54.0,38.2,30.16,West,279,9.0,10.0,55,0.00,OVC,OVC,0.00,WeatherDisplay:10.34,2013-06-05 00:19:00,
2013-06-04 18:24:00,53.7,37.9,30.16,WNW,291,7.0,9.0,55,0.00,BKN,BKN,0.00,WeatherDisplay:10.34,2013-06-05 00:24:00,
2013-06-04 18:29:00,53.5,37.7,30.16,West,269,8.0,13.0,55,0.00,OVC,OVC,0.00,WeatherDisplay:10.34,2013-06-05 00:29:00,
2013-06-04 18:34:00,53.4,38.1,30.16,WNW,287,7.0,10.0,56,0.00,OVC,OVC,0.00,WeatherDisplay:10.34,2013-06-05 00:34:00,
2013-06-04 18:39:00,53.2,37.9,30.16,WNW,289,7.0,9.0,56,0.00,OVC,OVC,0.00,WeatherDisplay:10.34,2013-06-05 00:39:00,
2013-06-04 18:44:00,53.1,38.3,30.16,NW,321,8.0,10.0,57,0.00,OVC,OVC,0.00,WeatherDisplay:10.34,2013-06-05 00:44:00,
2013-06-04 18:49:00,52.9,38.1,30.16,NW,325,12.0,14.0,57,0.00,OVC,OVC,0.00,WeatherDisplay:10.34,2013-06-05 00:49:00,
2013-06-04 18:54:00,52.7,37.9,30.16,NW,309,7.0,10.0,57,0.00,OVC,OVC,0.00,WeatherDisplay:10.34,2013-06-05 00:54:00,
2013-06-04 18:59:00,52.7,37.9,30.16,WNW,302,7.0,9.0,57,0.00,OVC,OVC,0.00,WeatherDisplay:10.34,2013-06-05 00:59:00,
2013-06-04 19:04:00,52.7,38.3,30.16,West,265,7.0,10.0,58,0.00,OVC,OVC,0.00,WeatherDisplay:10.34,2013-06-05 01:04:00,
2013-06-04 19:09:00,52.5,38.1,30.16,West,267,6.0,8.0,58,0.00,OVC,OVC,0.00,WeatherDisplay:10.34,2013-06-05 01:09:00,
2013-06-04 19:14:00,52.4,38.0,30.17,NW,304,3.0,7.0,58,0.00,OVC,OVC,0.00,WeatherDisplay:10.34,2013-06-05 01:14:00,
2013-06-04 19:19:00,52.3,38.0,30.17,NW,316,4.0,10.0,58,0.00,OVC,OVC,0.00,WeatherDisplay:10.34,2013-06-05 01:19:00,
2013-06-04 19:24:00,52.2,37.9,30.17,NNW,330,8.0,10.0,58,0.00,OVC,OVC,0.00,WeatherDisplay:10.34,2013-06-05 01:24:00,
2013-06-04 19:29:00,52.2,38.3,30.17,NW,317,3.0,7.0,59,0.00,OVC,OVC,0.00,WeatherDisplay:10.34,2013-06-05 01:29:00,
2013-06-04 19:34:00,52.1,38.2,30.17,NNW,330,5.0,7.0,59,0.00,OVC,OVC,0.00,WeatherDisplay:10.34,2013-06-05 01:34:00,
2013-06-04 19:39:00,52.0,38.1,30.17,NW,323,6.0,7.0,59,0.00,OVC,OVC,0.00,WeatherDisplay:10.34,2013-06-05 01:39:00,
2013-06-04 19:44:00,51.9,38.0,30.17,WNW,298,3.0,3.0,59,0.00,OVC,OVC,0.00,WeatherDisplay:10.34,2013-06-05 01:44:00,
2013-06-04 19:49:00,51.9,38.0,30.17,NNW,327,4.0,4.0,59,0.00,OVC,OVC,0.00,WeatherDisplay:10.34,2013-06-05 01:49:00,
2013-06-04 19:54:00,51.9,38.0,30.17,NW,322,3.0,8.0,59,0.00,OVC,OVC,0.00,WeatherDisplay:10.34,2013-06-05 01:54:00,
2013-06-04 19:59:00,51.9,38.4,30.17,NNW,337,5.0,9.0,60,0.00,OVC,OVC,0.00,WeatherDisplay:10.34,2013-06-05 01:59:00,
2013-06-04 20:04:00,51.7,37.8,30.17,North,349,8.0,12.0,59,0.00,OVC,OVC,0.00,WeatherDisplay:10.34,2013-06-05 02:04:00,
2013-06-04 20:09:00,51.5,37.6,30.18,NNW,342,8.0,12.0,59,0.00,OVC,OVC,0.00,WeatherDisplay:10.34,2013-06-05 02:09:00,
2013-06-04 20:14:00,51.4,37.5,30.18,NW,304,7.0,8.0,59,0.00,OVC,OVC,0.00,WeatherDisplay:10.34,2013-06-05 02:14:00,
2013-06-04 20:19:00,51.3,37.9,30.17,NNW,327,5.0,5.0,60,0.00,OVC,OVC,0.00,WeatherDisplay:10.34,2013-06-05 02:19:00,
2013-06-04 20:24:00,51.2,37.8,30.18,NW,306,2.0,2.0,60,0.00,OVC,OVC,0.00,WeatherDisplay:10.34,2013-06-05 02:24:00,
2013-06-04 20:29:00,51.2,37.8,30.18,WNW,292,2.0,3.0,60,0.00,OVC,OVC,0.00,WeatherDisplay:10.34,2013-06-05 02:29:00,
2013-06-04 20:34:00,51.2,38.2,30.18,NNW,327,6.0,7.0,61,0.00,OVC,OVC,0.00,WeatherDisplay:10.34,2013-06-05 02:34:00,
2013-06-04 20:39:00,51.3,37.9,30.18,NW,323,6.0,6.0,60,0.00,OVC,OVC,0.00,WeatherDisplay:10.34,2013-06-05 02:39:00,
2013-06-04 20:44:00,51.2,37.8,30.18,NNW,340,8.0,8.0,60,0.00,OVC,OVC,0.00,WeatherDisplay:10.34,2013-06-05 02:44:00,
2013-06-04 20:49:00,51.0,37.6,30.18,WNW,302,3.0,7.0,60,0.00,OVC,OVC,0.00,WeatherDisplay:10.34,2013-06-05 02:49:00,
2013-06-04 20:54:00,51.0,37.6,30.19,WNW,300,4.0,5.0,60,0.00,OVC,OVC,0.00,WeatherDisplay:10.34,2013-06-05 02:54:00,
2013-06-04 20:59:00,50.8,37.4,30.19,NW,306,4.0,7.0,60,0.00,OVC,OVC,0.00,WeatherDisplay:10.34,2013-06-05 02:59:00,
2013-06-04 21:04:00,50.8,37.8,30.19,NW,313,4.0,5.0,61,0.00,CLR,CLR,0.00,WeatherDisplay:10.34,2013-06-05 03:04:00,
2013-06-04 21:09:00,50.6,37.6,30.19,NW,324,6.0,7.0,61,0.00,CLR,CLR,0.00,WeatherDisplay:10.34,2013-06-05 03:09:00,
2013-06-04 21:14:00,50.5,37.5,30.19,WNW,290,3.0,5.0,61,0.00,CLR,CLR,0.00,WeatherDisplay:10.34,2013-06-05 03:14:00,
2013-06-04 21:19:00,50.3,37.4,30.19,WNW,296,3.0,3.0,61,0.00,CLR,CLR,0.00,WeatherDisplay:10.34,2013-06-05 03:19:00,
2013-06-04 21:24:00,50.3,37.8,30.19,WNW,294,1.0,2.0,62,0.00,CLR,CLR,0.00,WeatherDisplay:10.34,2013-06-05 03:24:00,
2013-06-04 21:29:00,50.3,37.8,30.19,WNW,294,1.0,2.0,62,0.00,CLR,CLR,0.00,WeatherDisplay:10.34,2013-06-05 03:29:00,
2013-06-04 21:35:00,50.2,38.1,30.20,WNW,295,0.0,0.0,63,0.00,CLR,CLR,0.00,WeatherDisplay:10.34,2013-06-05 03:35:00,
2013-06-04 21:40:00,50.1,38.0,30.20,WNW,295,1.0,0.0,63,0.00,CLR,CLR,0.00,WeatherDisplay:10.34,2013-06-05 03:40:00,
2013-06-04 21:45:00,50.1,38.0,30.20,WNW,290,3.0,3.0,63,0.00,CLR,CLR,0.00,WeatherDisplay:10.34,2013-06-05 03:45:00,
2013-06-04 21:50:00,50.0,37.9,30.20,West,267,6.0,7.0,63,0.00,CLR,CLR,0.00,WeatherDisplay:10.34,2013-06-05 03:50:00,
2013-06-04 21:55:00,49.9,37.8,30.20,West,277,2.0,5.0,63,0.00,CLR,CLR,0.00,WeatherDisplay:10.34,2013-06-05 03:55:00,
2013-06-04 22:00:00,49.7,38.0,30.21,West,275,4.0,4.0,64,0.00,CLR,CLR,0.00,WeatherDisplay:10.34,2013-06-05 04:00:00,
2013-06-04 22:01:00,49.7,38.0,30.21,WNW,293,2.0,3.0,64,0.00,CLR,CLR,0.00,WeatherDisplay:10.34,2013-06-05 04:01:00,
2013-06-04 22:02:00,49.7,38.0,30.21,WNW,292,2.0,2.0,64,0.00,CLR,CLR,0.00,WeatherDisplay:10.34,2013-06-05 04:02:00,
2013-06-04 22:03:00,49.7,38.0,30.21,West,273,4.0,8.0,64,0.00,CLR,CLR,0.00,WeatherDisplay:10.34,2013-06-05 04:03:00,
2013-06-04 22:04:00,49.6,37.5,30.21,West,280,5.0,5.0,63,0.00,CLR,CLR,0.00,WeatherDisplay:10.34,2013-06-05 04:04:00,
2013-06-04 22:09:00,49.6,37.9,30.21,West,271,2.0,3.0,64,0.00,CLR,CLR,0.00,WeatherDisplay:10.34,2013-06-05 04:09:00,
2013-06-04 22:14:00,49.5,37.8,30.21,West,272,3.0,3.0,64,0.00,CLR,CLR,0.00,WeatherDisplay:10.34,2013-06-05 04:14:00,
2013-06-04 22:19:00,49.5,37.8,30.21,West,272,2.0,3.0,64,0.00,CLR,CLR,0.00,WeatherDisplay:10.34,2013-06-05 04:19:00,
2013-06-04 22:24:00,49.5,37.8,30.20,WNW,286,6.0,6.0,64,0.00,CLR,CLR,0.00,WeatherDisplay:10.34,2013-06-05 04:24:00,
2013-06-04 22:29:00,49.4,38.1,30.20,West,272,5.0,5.0,65,0.00,CLR,CLR,0.00,WeatherDisplay:10.34,2013-06-05 04:29:00,
2013-06-04 22:34:00,49.4,38.1,30.21,West,260,4.0,5.0,65,0.00,CLR,CLR,0.00,WeatherDisplay:10.34,2013-06-05 04:34:00,
2013-06-04 22:39:00,49.3,38.0,30.21,West,264,3.0,5.0,65,0.00,CLR,CLR,0.00,WeatherDisplay:10.34,2013-06-05 04:39:00,
2013-06-04 22:44:00,49.2,38.3,30.21,West,265,3.0,3.0,66,0.00,CLR,CLR,0.00,WeatherDisplay:10.34,2013-06-05 04:44:00,
2013-06-04 22:49:00,49.2,38.3,30.21,West,267,2.0,3.0,66,0.00,CLR,CLR,0.00,WeatherDisplay:10.34,2013-06-05 04:49:00,
2013-06-04 22:54:00,49.1,38.2,30.21,West,266,3.0,3.0,66,0.00,CLR,CLR,0.00,WeatherDisplay:10.34,2013-06-05 04:54:00,
2013-06-04 22:59:00,49.0,38.1,30.21,WSW,258,5.0,7.0,66,0.00,CLR,CLR,0.00,WeatherDisplay:10.34,2013-06-05 04:59:00,
2013-06-04 23:04:00,49.0,38.1,30.21,WSW,249,2.0,2.0,66,0.00,CLR,CLR,0.00,WeatherDisplay:10.34,2013-06-05 05:04:00,
2013-06-04 23:09:00,49.0,38.1,30.21,West,264,6.0,8.0,66,0.00,CLR,CLR,0.00,WeatherDisplay:10.34,2013-06-05 05:09:00,
2013-06-04 23:14:00,48.9,38.0,30.21,West,267,3.0,3.0,66,0.00,CLR,CLR,0.00,WeatherDisplay:10.34,2013-06-05 05:14:00,
2013-06-04 23:19:00,48.8,38.3,30.21,West,268,6.0,7.0,67,0.00,CLR,CLR,0.00,WeatherDisplay:10.34,2013-06-05 05:19:00,
2013-06-04 23:24:00,48.8,38.3,30.21,West,268,3.0,3.0,67,0.00,CLR,CLR,0.00,WeatherDisplay:10.34,2013-06-05 05:24:00,
2013-06-04 23:29:00,48.7,38.2,30.21,WNW,293,2.0,2.0,67,0.00,CLR,CLR,0.00,WeatherDisplay:10.34,2013-06-05 05:29:00,
2013-06-04 23:34:00,48.7,38.6,30.21,West,261,4.0,4.0,68,0.00,CLR,CLR,0.00,WeatherDisplay:10.34,2013-06-05 05:34:00,
2013-06-04 23:39:00,48.6,38.5,30.21,WNW,283,1.0,1.0,68,0.00,CLR,CLR,0.00,WeatherDisplay:10.34,2013-06-05 05:39:00,
2013-06-04 23:44:00,48.5,38.4,30.21,WNW,291,4.0,5.0,68,0.00,CLR,CLR,0.00,WeatherDisplay:10.34,2013-06-05 05:44:00,
2013-06-04 23:49:00,48.5,38.4,30.21,WNW,286,6.0,8.0,68,0.00,CLR,CLR,0.00,WeatherDisplay:10.34,2013-06-05 05:49:00,
2013-06-04 23:54:00,48.4,38.7,30.20,WSW,257,5.0,7.0,69,0.00,CLR,CLR,0.00,WeatherDisplay:10.34,2013-06-05 05:54:00,
2013-06-04 23:59:00,48.3,38.6,30.20,West,268,6.0,7.0,69,0.00,CLR,CLR,0.00,WeatherDisplay:10.34,2013-06-05 05:59:00,